createdAt,value
2023-09-04T00:00:08.988Z,99351.38
2023-09-04T00:01:18.420Z,99343.25
2023-09-04T00:02:21.759Z,99339.38
2023-09-04T00:03:23.640Z,99340.09
2023-09-04T00:04:26.652Z,99340.63
2023-09-04T00:05:28.525Z,99345.47
2023-09-04T00:06:31.348Z,99342.41
2023-09-04T00:07:33.242Z,99339.50
2023-09-04T00:08:36.087Z,99337.88
2023-09-04T00:09:38.878Z,99335.38
2023-09-04T00:10:41.680Z,99334.97
2023-09-04T00:11:44.883Z,99334.25
2023-09-04T00:12:47.749Z,99339.81
2023-09-04T00:13:49.610Z,99341.72
2023-09-04T00:14:52.492Z,99340.22
2023-09-04T00:15:57.431Z,99345.59
2023-09-04T00:17:00.302Z,99347.38
2023-09-04T00:18:02.268Z,99345.59
2023-09-04T00:19:05.155Z,99348.22
2023-09-04T00:20:07.690Z,99346.56
2023-09-04T00:21:10.648Z,99343.66
2023-09-04T00:22:13.576Z,99355.56
2023-09-04T00:23:16.450Z,99349.91
2023-09-04T00:24:20.683Z,99350.59
2023-09-04T00:25:23.534Z,99358.06
2023-09-04T00:26:25.366Z,99344.78
2023-09-04T00:27:29.605Z,99350.75
2023-09-04T00:28:31.537Z,99353.91
2023-09-04T00:29:34.342Z,99353.66
2023-09-04T00:30:36.262Z,99360.31
2023-09-04T00:31:39.741Z,99355.47
2023-09-04T00:32:42.137Z,99361.41
2023-09-04T00:33:45.038Z,99361.13
2023-09-04T00:34:47.451Z,99357.38
2023-09-04T00:35:50.292Z,99363.31
2023-09-04T00:36:52.207Z,99364.03
2023-09-04T00:37:55.536Z,99371.75
2023-09-04T00:38:57.408Z,99378.00
2023-09-04T00:40:00.313Z,99384.91
2023-09-04T00:41:02.203Z,99384.06
2023-09-04T00:42:05.504Z,99379.78
2023-09-04T00:43:08.903Z,99378.97
2023-09-04T00:44:11.752Z,99381.59
2023-09-04T00:45:13.680Z,99382.56
2023-09-04T00:46:15.680Z,99379.94
2023-09-04T00:47:18.838Z,99372.31
2023-09-04T00:48:20.865Z,99377.56
2023-09-04T00:49:24.055Z,99373.28
2023-09-04T00:50:25.921Z,99370.78
2023-09-04T00:51:28.792Z,99376.50
2023-09-04T00:52:30.721Z,99376.75
2023-09-04T00:53:34.053Z,99371.91
2023-09-04T00:54:36.432Z,99375.66
2023-09-04T00:55:40.066Z,99381.97
2023-09-04T00:56:41.949Z,99380.47
2023-09-04T00:57:45.180Z,99382.69
2023-09-04T00:58:48.901Z,99380.47
2023-09-04T00:59:52.299Z,99385.16
2023-09-04T01:00:55.420Z,99386.28
2023-09-04T01:02:01.076Z,99385.69
2023-09-04T01:03:03.948Z,99385.84
2023-09-04T01:04:06.958Z,99387.63
2023-09-04T01:05:09.268Z,99380.59
2023-09-04T01:06:12.100Z,99388.47
2023-09-04T01:07:13.982Z,99387.50
2023-09-04T01:08:17.727Z,99384.72
2023-09-04T01:09:20.327Z,99376.59
2023-09-04T01:10:23.874Z,99377.25
2023-09-04T01:11:30.760Z,99374.78
2023-09-04T01:12:38.495Z,99377.25
2023-09-04T01:13:44.987Z,99374.63
2023-09-04T01:14:49.369Z,99382.38
2023-09-04T01:15:52.669Z,99389.31
2023-09-04T01:16:55.769Z,99387.50
2023-09-04T01:18:00.874Z,99383.19
2023-09-04T01:19:03.839Z,99382.38
2023-09-04T01:20:25.747Z,99379.91
2023-09-04T01:21:28.748Z,99380.16
2023-09-04T01:22:30.642Z,99379.63
2023-09-04T01:23:34.224Z,99376.28
2023-09-04T01:24:37.004Z,99373.78
2023-09-04T01:25:43.435Z,99381.25
2023-09-04T01:26:51.543Z,99381.81
2023-09-04T01:27:58.817Z,99375.16
2023-09-04T01:29:05.702Z,99374.72
2023-09-04T01:30:12.490Z,99380.38
2023-09-04T01:31:19.095Z,99380.78
2023-09-04T01:32:27.914Z,99375.00
2023-09-04T01:33:33.106Z,99380.50
2023-09-04T01:34:39.563Z,99380.66
2023-09-04T01:35:43.669Z,99378.13
2023-09-04T01:36:46.798Z,99383.53
2023-09-04T01:37:48.912Z,99384.50
2023-09-04T01:38:51.752Z,99376.75
2023-09-04T01:39:54.660Z,99384.63
2023-09-04T01:40:57.530Z,99382.13
2023-09-04T01:41:59.400Z,99382.97
2023-09-04T01:43:02.244Z,99381.19
2023-09-04T01:44:06.975Z,99378.56
2023-09-04T01:45:10.642Z,99379.50
2023-09-04T01:46:12.653Z,99388.09
2023-09-04T01:47:15.503Z,99385.47
2023-09-04T01:48:17.373Z,99389.75
2023-09-04T01:49:20.196Z,99386.44
2023-09-04T01:50:22.071Z,99388.91
2023-09-04T01:51:25.277Z,99383.66
2023-09-04T01:52:28.139Z,99395.81
2023-09-04T01:53:30.061Z,99400.38
2023-09-04T01:54:33.506Z,99390.00
2023-09-04T01:55:35.369Z,99389.16
2023-09-04T01:56:38.260Z,99389.31
2023-09-04T01:57:40.204Z,99390.13
2023-09-04T01:58:43.066Z,99389.31
2023-09-04T01:59:44.990Z,99386.00
2023-09-04T02:00:48.475Z,99381.69
2023-09-04T02:01:50.422Z,99386.25
2023-09-04T02:02:53.448Z,99394.13
2023-09-04T02:03:56.275Z,99391.66
2023-09-04T02:04:59.272Z,99393.44
2023-09-04T02:06:01.182Z,99395.94
2023-09-04T02:07:05.672Z,99401.03
2023-09-04T02:08:09.276Z,99390.53
2023-09-04T02:09:13.439Z,99403.56
2023-09-04T02:10:15.579Z,99401.47
2023-09-04T02:11:18.469Z,99403.84
2023-09-04T02:12:20.346Z,99394.03
2023-09-04T02:13:23.154Z,99403.44
2023-09-04T02:14:25.325Z,99398.88
2023-09-04T02:15:28.924Z,99402.19
2023-09-04T02:17:54.702Z,99406.22
2023-09-04T02:18:56.627Z,99409.66
2023-09-04T02:20:01.334Z,99413.84
2023-09-04T02:21:04.725Z,99409.41
2023-09-04T02:22:08.997Z,99410.94
2023-09-04T02:23:10.849Z,99407.22
2023-09-04T02:24:14.678Z,99414.13
2023-09-04T02:25:16.701Z,99408.88
2023-09-04T02:26:19.533Z,99406.25
2023-09-04T02:27:21.387Z,99407.06
2023-09-04T02:28:24.487Z,99407.91
2023-09-04T02:29:26.610Z,99411.34
2023-09-04T02:30:30.241Z,99417.47
2023-09-04T02:31:33.165Z,99407.78
2023-09-04T02:32:35.424Z,99410.41
2023-09-04T02:33:38.305Z,99410.25
2023-09-04T02:34:41.476Z,99413.88
2023-09-04T02:35:44.377Z,99412.06
2023-09-04T02:36:46.234Z,99413.88
2023-09-04T02:37:50.589Z,99412.06
2023-09-04T02:38:52.439Z,99409.59
2023-09-04T02:39:55.265Z,99408.72
2023-09-04T02:40:57.223Z,99412.22
2023-09-04T02:42:00.009Z,99413.16
2023-09-04T02:43:02.035Z,99418.28
2023-09-04T02:44:05.362Z,99411.50
2023-09-04T02:45:08.994Z,99408.19
2023-09-04T02:46:12.010Z,99408.31
2023-09-04T02:47:16.003Z,99415.25
2023-09-04T02:48:18.896Z,99405.56
2023-09-04T02:49:20.742Z,99413.44
2023-09-04T02:50:23.605Z,99411.50
2023-09-04T02:51:25.481Z,99422.72
2023-09-04T02:52:31.084Z,99412.06
2023-09-04T02:53:34.400Z,99416.34
2023-09-04T02:54:37.213Z,99423.16
2023-09-04T02:55:39.053Z,99426.59
2023-09-04T02:56:41.895Z,99433.22
2023-09-04T02:57:43.723Z,99429.66
2023-09-04T02:58:46.540Z,99435.72
2023-09-04T02:59:48.673Z,99431.31
2023-09-04T03:00:51.135Z,99437.38
2023-09-04T03:01:53.985Z,99432.97
2023-09-04T03:02:56.970Z,99435.44
2023-09-04T03:03:59.841Z,99439.03
2023-09-04T03:05:01.798Z,99433.09
2023-09-04T03:06:08.346Z,99436.72
2023-09-04T03:07:11.259Z,99434.91
2023-09-04T03:08:13.265Z,99437.38
2023-09-04T03:09:17.627Z,99434.63
2023-09-04T03:10:19.521Z,99435.44
2023-09-04T03:11:22.466Z,99430.19
2023-09-04T03:12:24.949Z,99434.50
2023-09-04T03:13:27.796Z,99437.81
2023-09-04T03:14:30.060Z,99438.63
2023-09-04T03:15:32.195Z,99431.72
2023-09-04T03:16:35.134Z,99433.53
2023-09-04T03:17:37.290Z,99426.63
2023-09-04T03:18:40.203Z,99425.66
2023-09-04T03:19:42.590Z,99426.72
2023-09-04T03:20:45.398Z,99425.91
2023-09-04T03:21:47.275Z,99426.88
2023-09-04T03:22:50.318Z,99429.50
2023-09-04T03:23:52.387Z,99429.66
2023-09-04T03:24:56.678Z,99439.34
2023-09-04T03:26:01.857Z,99434.34
2023-09-04T03:27:05.292Z,99437.22
2023-09-04T03:28:07.250Z,99440.81
2023-09-04T03:29:10.299Z,99434.88
2023-09-04T03:30:14.902Z,99438.47
2023-09-04T03:31:18.833Z,99436.78
2023-09-04T03:32:21.727Z,99442.03
2023-09-04T03:33:25.086Z,99438.72
2023-09-04T03:34:26.982Z,99438.03
2023-09-04T03:35:29.830Z,99434.84
2023-09-04T03:36:31.680Z,99428.03
2023-09-04T03:37:36.925Z,99431.63
2023-09-04T03:38:39.324Z,99424.31
2023-09-04T03:39:42.229Z,99426.94
2023-09-04T03:40:45.578Z,99422.91
2023-09-04T03:41:48.379Z,99426.06
2023-09-04T03:42:50.746Z,99432.53
2023-09-04T03:43:54.352Z,99427.56
2023-09-04T03:44:56.258Z,99426.16
2023-09-04T03:45:59.221Z,99428.34
2023-09-04T03:47:01.332Z,99426.94
2023-09-04T03:48:04.771Z,99421.94
2023-09-04T03:49:07.076Z,99423.88
2023-09-04T03:50:11.542Z,99424.97
2023-09-04T03:51:13.412Z,99419.16
2023-09-04T03:52:16.239Z,99417.75
2023-09-04T03:53:18.134Z,99422.31
2023-09-04T03:54:21.005Z,99426.84
2023-09-04T03:55:23.510Z,99414.81
2023-09-04T03:56:28.008Z,99424.47
2023-09-04T03:57:31.050Z,99422.09
2023-09-04T03:58:32.933Z,99420.44
2023-09-04T03:59:35.758Z,99420.69
2023-09-04T04:00:37.610Z,99420.94
2023-09-04T04:01:40.949Z,99419.41
2023-09-04T04:02:43.128Z,99426.44
2023-09-04T04:03:46.256Z,99422.28
2023-09-04T04:04:48.190Z,99428.47
2023-09-04T04:05:51.359Z,99435.50
2023-09-04T04:06:53.226Z,99443.50
2023-09-04T04:07:56.024Z,99455.94
2023-09-04T04:08:57.960Z,99451.06
2023-09-04T04:09:59.788Z,99454.75
2023-09-04T04:11:02.580Z,99457.53
2023-09-04T04:12:07.417Z,99459.31
2023-09-04T04:13:10.208Z,99456.94
2023-09-04T04:14:12.046Z,99457.75
2023-09-04T04:15:14.977Z,99460.50
2023-09-04T04:16:16.976Z,99461.47
2023-09-04T04:17:19.845Z,99472.09
2023-09-04T04:18:22.158Z,99468.75
2023-09-04T04:19:25.276Z,99471.66
2023-09-04T04:20:27.109Z,99465.00
2023-09-04T04:21:30.061Z,99467.84
2023-09-04T04:22:32.112Z,99467.16
2023-09-04T04:23:36.600Z,99462.97
2023-09-04T04:24:38.510Z,99474.44
2023-09-04T04:25:41.748Z,99469.19
2023-09-04T04:26:44.293Z,99466.56
2023-09-04T04:27:48.538Z,99468.34
2023-09-04T04:28:50.371Z,99478.84
2023-09-04T04:29:56.305Z,99480.50
2023-09-04T04:31:01.973Z,99470.16
2023-09-04T04:32:08.164Z,99474.44
2023-09-04T04:33:11.344Z,99467.66
2023-09-04T04:34:14.272Z,99478.13
2023-09-04T04:35:16.274Z,99475.53
2023-09-04T04:36:19.259Z,99478.97
2023-09-04T04:37:21.393Z,99484.06
2023-09-04T04:38:24.848Z,99480.63
2023-09-04T04:39:27.009Z,99479.78
2023-09-04T04:40:29.903Z,99491.94
2023-09-04T04:41:34.532Z,99488.50
2023-09-04T04:42:39.539Z,99495.38
2023-09-04T04:43:45.121Z,99497.03
2023-09-04T04:44:48.635Z,99500.50
2023-09-04T04:45:51.569Z,99502.06
2023-09-04T04:46:54.525Z,99508.00
2023-09-04T04:47:57.352Z,99500.84
2023-09-04T04:49:00.389Z,99505.97
2023-09-04T04:50:02.335Z,99505.72
2023-09-04T04:51:05.659Z,99507.38
2023-09-04T04:52:07.858Z,99505.47
2023-09-04T04:53:12.218Z,99499.16
2023-09-04T04:54:14.300Z,99502.47
2023-09-04T04:55:17.182Z,99509.25
2023-09-04T04:56:19.303Z,99508.03
2023-09-04T04:57:22.126Z,99511.38
2023-09-04T04:58:25.571Z,99509.31
2023-09-04T04:59:30.066Z,99508.09
2023-09-04T05:00:31.902Z,99512.16
2023-09-04T05:01:35.402Z,99514.53
2023-09-04T05:02:38.047Z,99516.81
2023-09-04T05:03:40.916Z,99519.16
2023-09-04T05:04:47.147Z,99523.88
2023-09-04T05:05:52.187Z,99524.25
2023-09-04T05:06:54.147Z,99523.44
2023-09-04T05:07:57.054Z,99530.69
2023-09-04T05:08:58.960Z,99522.06
2023-09-04T05:10:00.856Z,99525.22
2023-09-04T05:11:05.507Z,99527.47
2023-09-04T05:12:10.460Z,99522.09
2023-09-04T05:13:14.181Z,99516.84
2023-09-04T05:14:16.130Z,99522.78
2023-09-04T05:15:20.479Z,99510.34
2023-09-04T05:16:23.176Z,99514.53
2023-09-04T05:17:25.182Z,99517.84
2023-09-04T05:18:28.189Z,99516.63
2023-09-04T05:19:30.596Z,99521.75
2023-09-04T05:20:33.689Z,99515.41
2023-09-04T05:21:50.302Z,99514.44
2023-09-04T05:23:01.513Z,99514.44
2023-09-04T05:24:05.578Z,99511.97
2023-09-04T05:25:10.318Z,99509.34
2023-09-04T05:26:12.349Z,99511.00
2023-09-04T05:27:15.347Z,99507.25
2023-09-04T05:28:17.486Z,99515.03
2023-09-04T05:29:20.636Z,99515.84
2023-09-04T05:30:23.971Z,99520.13
2023-09-04T05:31:27.118Z,99521.66
2023-09-04T05:32:29.223Z,99534.66
2023-09-04T05:33:32.408Z,99530.25
2023-09-04T05:34:35.770Z,99532.72
2023-09-04T05:35:38.784Z,99536.91
2023-09-04T05:36:40.849Z,99542.00
2023-09-04T05:37:44.243Z,99533.03
2023-09-04T05:38:47.986Z,99535.53
2023-09-04T05:39:51.065Z,99540.50
2023-09-04T05:40:54.157Z,99546.19
2023-09-04T05:41:57.090Z,99539.72
2023-09-04T05:42:59.112Z,99548.03
2023-09-04T05:44:02.131Z,99544.19
2023-09-04T05:45:04.645Z,99533.38
2023-09-04T05:46:09.115Z,99538.25
2023-09-04T05:47:11.099Z,99534.41
2023-09-04T05:48:14.060Z,99534.03
2023-09-04T05:49:16.199Z,99532.81
2023-09-04T05:50:19.586Z,99529.88
2023-09-04T05:51:21.491Z,99533.22
2023-09-04T05:52:24.613Z,99534.75
2023-09-04T05:53:26.742Z,99533.66
2023-09-04T05:54:29.917Z,99530.72
2023-09-04T05:55:31.910Z,99529.66
2023-09-04T05:56:34.964Z,99523.84
2023-09-04T05:57:37.274Z,99529.09
2023-09-04T05:58:45.549Z,99528.16
2023-09-04T05:59:48.123Z,99537.56
2023-09-04T06:00:51.209Z,99533.94
2023-09-04T06:01:54.571Z,99533.94
2023-09-04T06:02:57.650Z,99526.03
2023-09-04T06:03:59.861Z,99533.78
2023-09-04T06:05:02.950Z,99534.59
2023-09-04T06:06:05.026Z,99530.06
2023-09-04T06:07:12.007Z,99529.72
2023-09-04T06:08:14.017Z,99524.59
2023-09-04T06:09:17.012Z,99518.72
2023-09-04T06:10:19.089Z,99515.94
2023-09-04T06:11:21.327Z,99509.41
2023-09-04T06:12:24.146Z,99507.44
2023-09-04T06:13:26.000Z,99499.28
2023-09-04T06:14:28.782Z,99498.53
2023-09-04T06:15:30.648Z,99507.22
2023-09-04T06:16:34.536Z,99503.03
2023-09-04T06:17:38.720Z,99508.53
2023-09-04T06:18:40.626Z,99516.69
2023-09-04T06:19:43.460Z,99518.03
2023-09-04T06:20:45.276Z,99516.63
2023-09-04T06:21:48.119Z,99522.00
2023-09-04T06:22:49.949Z,99520.44
2023-09-04T06:23:52.795Z,99526.63
2023-09-04T06:24:54.710Z,99520.31
2023-09-04T06:25:57.514Z,99531.78
2023-09-04T06:26:59.356Z,99523.91
2023-09-04T06:28:04.269Z,99530.41
2023-09-04T06:29:06.119Z,99527.59
2023-09-04T06:30:09.668Z,99523.03
2023-09-04T06:31:11.606Z,99522.56
2023-09-04T06:32:15.921Z,99524.75
2023-09-04T06:33:19.145Z,99522.94
2023-09-04T06:34:22.185Z,99525.13
2023-09-04T06:35:24.340Z,99523.50
2023-09-04T06:36:27.125Z,99519.75
2023-09-04T06:37:29.117Z,99523.06
2023-09-04T06:38:31.915Z,99524.72
2023-09-04T06:39:33.837Z,99515.66
2023-09-04T06:40:39.033Z,99523.94
2023-09-04T06:41:42.579Z,99519.88
2023-09-04T06:42:45.622Z,99523.69
2023-09-04T06:43:47.488Z,99520.44
2023-09-04T06:44:50.590Z,99516.53
2023-09-04T06:45:52.448Z,99526.00
2023-09-04T06:46:55.296Z,99520.59
2023-09-04T06:47:57.384Z,99511.88
2023-09-04T06:49:01.541Z,99515.06
2023-09-04T06:50:03.888Z,99510.81
2023-09-04T06:51:06.734Z,99517.09
2023-09-04T06:52:09.183Z,99516.16
2023-09-04T06:53:13.512Z,99515.22
2023-09-04T06:54:15.612Z,99517.19
2023-09-04T06:55:18.451Z,99517.06
2023-09-04T06:56:20.335Z,99518.78
2023-09-04T06:57:23.135Z,99513.81
2023-09-04T06:58:27.196Z,99517.16
2023-09-04T06:59:30.094Z,99515.34
2023-09-04T07:00:32.131Z,99523.59
2023-09-04T07:01:35.361Z,99522.44
2023-09-04T07:02:37.357Z,99528.75
2023-09-04T07:03:39.193Z,99523.63
2023-09-04T07:04:44.300Z,99525.94
2023-09-04T07:05:46.253Z,99531.06
2023-09-04T07:06:49.050Z,99528.59
2023-09-04T07:07:50.937Z,99531.56
2023-09-04T07:08:54.289Z,99530.91
2023-09-04T07:09:56.095Z,99543.47
2023-09-04T07:10:58.962Z,99543.81
2023-09-04T07:12:00.859Z,99552.75
2023-09-04T07:13:04.078Z,99551.78
2023-09-04T07:14:05.889Z,99548.13
2023-09-04T07:15:09.596Z,99559.88
2023-09-04T07:16:19.795Z,99566.00
2023-09-04T07:17:30.012Z,99565.88
2023-09-04T07:18:31.953Z,99555.06
2023-09-04T07:19:34.762Z,99554.06
2023-09-04T07:20:38.083Z,99563.84
2023-09-04T07:21:41.578Z,99569.94
2023-09-04T07:22:43.558Z,99566.31
2023-09-04T07:23:47.363Z,99571.25
2023-09-04T07:24:49.373Z,99576.69
2023-09-04T07:25:54.351Z,99566.78
2023-09-04T07:26:57.218Z,99570.06
2023-09-04T07:27:59.136Z,99575.81
2023-09-04T07:29:01.961Z,99570.31
2023-09-04T07:30:04.893Z,99568.56
2023-09-04T07:31:17.557Z,99565.03
2023-09-04T07:32:19.531Z,99566.09
2023-09-04T07:33:22.745Z,99564.56
2023-09-04T07:34:24.972Z,99567.22
2023-09-04T07:35:28.597Z,99567.88
2023-09-04T07:36:31.756Z,99576.47
2023-09-04T07:37:33.723Z,99572.38
2023-09-04T07:38:36.567Z,99577.84
2023-09-04T07:39:38.860Z,99577.53
2023-09-04T07:40:41.749Z,99575.41
2023-09-04T07:41:43.592Z,99575.59
2023-09-04T07:42:46.141Z,99582.53
2023-09-04T07:43:50.278Z,99582.72
2023-09-04T07:44:52.161Z,99577.94
2023-09-04T07:45:56.083Z,99586.94
2023-09-04T07:46:57.999Z,99585.69
2023-09-04T07:48:00.855Z,99589.03
2023-09-04T07:49:02.756Z,99587.38
2023-09-04T07:50:06.467Z,99590.22
2023-09-04T07:51:23.544Z,99586.75
2023-09-04T07:52:34.001Z,99599.06
2023-09-04T07:53:35.904Z,99595.75
2023-09-04T07:54:38.732Z,99600.22
2023-09-04T07:55:40.584Z,99590.47
2023-09-04T07:56:43.938Z,99586.16
2023-09-04T07:57:45.801Z,99592.81
2023-09-04T07:58:48.636Z,99589.00
2023-09-04T07:59:50.551Z,99593.66
2023-09-04T08:00:54.040Z,99596.81
2023-09-04T08:01:56.017Z,99600.44
2023-09-04T08:02:59.095Z,99607.06
2023-09-04T08:04:02.832Z,99607.56
2023-09-04T08:05:06.316Z,99612.38
2023-09-04T08:06:08.800Z,99604.28
2023-09-04T08:07:11.674Z,99604.44
2023-09-04T08:08:14.845Z,99605.28
2023-09-04T08:09:18.191Z,99607.91
2023-09-04T08:10:20.467Z,99607.09
2023-09-04T08:11:23.332Z,99609.06
2023-09-04T08:12:25.207Z,99609.25
2023-09-04T08:13:28.090Z,99603.63
2023-09-04T08:14:35.625Z,99619.69
2023-09-04T08:15:38.799Z,99609.22
2023-09-04T08:16:40.716Z,99607.41
2023-09-04T08:17:46.983Z,99608.38
2023-09-04T08:18:48.935Z,99606.38
2023-09-04T08:19:51.828Z,99600.38
2023-09-04T08:20:53.775Z,99598.06
2023-09-04T08:21:58.443Z,99597.03
2023-09-04T08:23:00.293Z,99601.53
2023-09-04T08:24:04.606Z,99601.19
2023-09-04T08:25:07.465Z,99602.03
2023-09-04T08:26:10.953Z,99598.69
2023-09-04T08:27:12.873Z,99599.66
2023-09-04T08:28:15.744Z,99599.63
2023-09-04T08:29:17.591Z,99602.28
2023-09-04T08:30:20.936Z,99603.56
2023-09-04T08:31:23.051Z,99602.34
2023-09-04T08:32:26.096Z,99605.16
2023-09-04T08:33:28.680Z,99597.63
2023-09-04T08:34:33.184Z,99594.97
2023-09-04T08:35:35.091Z,99597.25
2023-09-04T08:36:37.958Z,99597.09
2023-09-04T08:37:40.353Z,99593.25
2023-09-04T08:38:42.740Z,99605.34
2023-09-04T08:39:46.981Z,99606.47
2023-09-04T08:40:49.015Z,99603.16
2023-09-04T08:41:52.756Z,99608.31
2023-09-04T08:42:55.900Z,99607.94
2023-09-04T08:43:59.243Z,99601.09
2023-09-04T08:45:02.013Z,99605.88
2023-09-04T08:46:07.788Z,99601.88
2023-09-04T08:47:11.118Z,99601.25
2023-09-04T08:48:14.773Z,99601.69
2023-09-04T08:49:17.738Z,99600.19
2023-09-04T08:50:21.872Z,99604.81
2023-09-04T08:51:24.680Z,99606.75
2023-09-04T08:52:27.661Z,99614.34
2023-09-04T08:53:29.661Z,99607.88
2023-09-04T08:54:32.527Z,99603.88
2023-09-04T08:55:35.738Z,99606.00
2023-09-04T08:56:39.361Z,99602.31
2023-09-04T08:57:43.587Z,99616.25
2023-09-04T08:58:46.822Z,99614.88
2023-09-04T08:59:48.784Z,99612.22
2023-09-04T09:00:52.538Z,99611.03
2023-09-04T09:01:56.752Z,99612.03
2023-09-04T09:03:02.924Z,99606.25
2023-09-04T09:04:06.244Z,99612.94
2023-09-04T09:05:09.898Z,99617.69
2023-09-04T09:06:11.934Z,99613.53
2023-09-04T09:07:15.778Z,99610.72
2023-09-04T09:08:17.654Z,99614.72
2023-09-04T09:09:23.152Z,99613.00
2023-09-04T09:10:25.156Z,99607.09
2023-09-04T09:11:29.530Z,99608.28
2023-09-04T09:12:37.301Z,99605.72
2023-09-04T09:13:41.374Z,99596.97
2023-09-04T09:14:43.210Z,99597.72
2023-09-04T09:15:46.134Z,99596.13
2023-09-04T09:16:48.091Z,99593.53
2023-09-04T09:17:51.641Z,99600.50
2023-09-04T09:18:56.155Z,99592.84
2023-09-04T09:19:58.073Z,99593.22
2023-09-04T09:20:59.921Z,99592.06
2023-09-04T09:22:13.283Z,99590.09
2023-09-04T09:23:15.959Z,99585.06
2023-09-04T09:24:20.344Z,99586.72
2023-09-04T09:25:22.965Z,99577.06
2023-09-04T09:26:25.791Z,99591.84
2023-09-04T09:27:31.339Z,99588.47
2023-09-04T09:28:33.750Z,99587.22
2023-09-04T09:29:37.696Z,99588.28
2023-09-04T09:30:40.287Z,99586.91
2023-09-04T09:31:47.216Z,99579.72
2023-09-04T09:32:52.021Z,99590.03
2023-09-04T09:33:54.952Z,99585.69
2023-09-04T09:34:59.006Z,99580.69
2023-09-04T09:36:01.780Z,99572.91
2023-09-04T09:37:03.982Z,99593.63
2023-09-04T09:38:07.279Z,99584.63
2023-09-04T09:39:10.375Z,99583.94
2023-09-04T09:40:15.529Z,99586.03
2023-09-04T09:41:17.405Z,99587.31
2023-09-04T09:42:32.037Z,99580.34
2023-09-04T09:43:34.024Z,99587.31
2023-09-04T09:44:39.146Z,99583.03
2023-09-04T09:45:42.522Z,99586.50
2023-09-04T09:46:45.506Z,99581.50
2023-09-04T09:47:48.152Z,99579.22
2023-09-04T09:48:50.003Z,99581.72
2023-09-04T09:49:52.877Z,99582.28
2023-09-04T09:50:58.669Z,99585.09
2023-09-04T09:52:01.468Z,99582.66
2023-09-04T09:53:04.275Z,99585.00
2023-09-04T09:54:07.833Z,99586.34
2023-09-04T09:55:24.665Z,99585.91
2023-09-04T09:56:27.531Z,99582.78
2023-09-04T09:57:30.886Z,99578.09
2023-09-04T09:58:33.878Z,99575.38
2023-09-04T09:59:36.503Z,99575.97
2023-09-04T10:00:40.072Z,99577.88
2023-09-04T10:01:42.113Z,99580.91
2023-09-04T10:02:45.220Z,99577.75
2023-09-04T10:03:48.671Z,99573.31
2023-09-04T10:04:51.837Z,99575.81
2023-09-04T10:05:56.068Z,99578.28
2023-09-04T10:07:02.002Z,99578.47
2023-09-04T10:08:04.793Z,99577.44
2023-09-04T10:09:22.430Z,99576.81
2023-09-04T10:10:24.991Z,99575.78
2023-09-04T10:11:28.230Z,99580.53
2023-09-04T10:12:35.109Z,99572.06
2023-09-04T10:13:40.492Z,99575.78
2023-09-04T10:14:43.680Z,99576.00
2023-09-04T10:15:48.377Z,99567.16
2023-09-04T10:16:53.394Z,99563.03
2023-09-04T10:18:00.883Z,99572.94
2023-09-04T10:19:03.719Z,99575.81
2023-09-04T10:20:07.838Z,99579.94
2023-09-04T10:21:14.511Z,99573.53
2023-09-04T10:22:25.396Z,99570.81
2023-09-04T10:23:34.124Z,99567.50
2023-09-04T10:24:45.676Z,99573.22
2023-09-04T10:25:52.803Z,99574.88
2023-09-04T10:27:00.672Z,99567.69
2023-09-04T10:28:06.171Z,99565.44
2023-09-04T10:29:12.992Z,99574.69
2023-09-04T10:30:18.710Z,99569.72
2023-09-04T10:31:21.874Z,99570.16
2023-09-04T10:32:24.027Z,99577.00
2023-09-04T10:33:27.088Z,99573.53
2023-09-04T10:34:29.199Z,99571.69
2023-09-04T10:35:34.126Z,99582.38
2023-09-04T10:36:38.310Z,99578.25
2023-09-04T10:37:41.565Z,99578.88
2023-09-04T10:38:45.301Z,99572.28
2023-09-04T10:39:51.959Z,99561.00
2023-09-04T10:40:57.375Z,99572.50
2023-09-04T10:42:00.358Z,99566.94
2023-09-04T10:43:05.015Z,99566.97
2023-09-04T10:44:09.990Z,99562.41
2023-09-04T10:45:12.881Z,99566.75
2023-09-04T10:46:17.098Z,99559.75
2023-09-04T10:47:19.618Z,99570.63
2023-09-04T10:48:42.061Z,99558.66
2023-09-04T10:49:44.368Z,99563.78
2023-09-04T10:50:47.138Z,99567.03
2023-09-04T10:51:48.964Z,99575.34
2023-09-04T10:52:51.830Z,99571.66
2023-09-04T10:53:54.073Z,99574.13
2023-09-04T10:55:13.380Z,99562.19
2023-09-04T10:56:15.315Z,99572.47
2023-09-04T10:57:18.104Z,99562.00
2023-09-04T10:58:21.279Z,99565.34
2023-09-04T10:59:24.236Z,99565.31
2023-09-04T11:00:27.757Z,99563.44
2023-09-04T11:01:35.993Z,99563.41
2023-09-04T11:02:40.157Z,99570.75
2023-09-04T11:03:45.583Z,99575.63
2023-09-04T11:04:47.880Z,99574.53
2023-09-04T11:06:21.627Z,99573.34
2023-09-04T11:07:28.165Z,99567.06
2023-09-04T11:08:31.904Z,99566.97
2023-09-04T11:09:33.746Z,99561.13
2023-09-04T11:10:39.571Z,99562.91
2023-09-04T11:11:41.553Z,99562.44
2023-09-04T11:12:45.773Z,99556.78
2023-09-04T11:13:56.186Z,99549.69
2023-09-04T11:14:59.039Z,99549.44
2023-09-04T11:16:04.688Z,99547.41
2023-09-04T11:17:09.334Z,99552.28
2023-09-04T11:18:15.840Z,99548.72
2023-09-04T11:19:19.498Z,99553.81
2023-09-04T11:20:25.632Z,99544.88
2023-09-04T11:21:31.929Z,99539.22
2023-09-04T11:22:35.624Z,99550.09
2023-09-04T11:23:37.505Z,99539.94
2023-09-04T11:24:41.285Z,99555.28
2023-09-04T11:25:47.502Z,99549.41
2023-09-04T11:26:50.372Z,99552.66
2023-09-04T11:27:52.638Z,99551.84
2023-09-04T11:28:58.650Z,99550.69
2023-09-04T11:30:12.905Z,99549.25
2023-09-04T11:31:15.821Z,99550.06
2023-09-04T11:32:18.266Z,99550.06
2023-09-04T11:33:21.731Z,99546.97
2023-09-04T11:34:23.892Z,99539.59
2023-09-04T11:35:27.476Z,99546.56
2023-09-04T11:36:29.336Z,99553.97
2023-09-04T11:37:32.993Z,99554.19
2023-09-04T11:38:37.100Z,99554.50
2023-09-04T11:39:55.007Z,99557.25
2023-09-04T11:40:59.812Z,99554.47
2023-09-04T11:42:03.098Z,99554.34
2023-09-04T11:43:04.939Z,99547.25
2023-09-04T11:44:09.713Z,99551.66
2023-09-04T11:45:11.584Z,99549.59
2023-09-04T11:46:14.584Z,99547.78
2023-09-04T11:47:17.005Z,99545.50
2023-09-04T11:48:19.852Z,99547.06
2023-09-04T11:49:22.038Z,99548.63
2023-09-04T11:50:24.945Z,99545.34
2023-09-04T11:51:26.762Z,99557.53
2023-09-04T11:52:29.999Z,99552.31
2023-09-04T11:53:32.378Z,99556.03
2023-09-04T11:54:37.402Z,99556.81
2023-09-04T11:55:39.361Z,99557.94
2023-09-04T11:56:42.617Z,99552.81
2023-09-04T11:57:44.536Z,99548.72
2023-09-04T11:58:46.357Z,99558.28
2023-09-04T11:59:50.628Z,99550.91
2023-09-04T12:02:05.338Z,99564.59
2023-09-04T12:03:19.470Z,99558.53
2023-09-04T12:04:22.493Z,99553.22
2023-09-04T12:05:24.526Z,99551.13
2023-09-04T12:06:29.877Z,99550.59
2023-09-04T12:07:31.961Z,99551.75
2023-09-04T12:08:35.072Z,99552.69
2023-09-04T12:09:37.450Z,99550.69
2023-09-04T12:10:40.358Z,99547.91
2023-09-04T12:11:42.507Z,99553.78
2023-09-04T12:12:45.669Z,99545.63
2023-09-04T12:13:48.027Z,99553.41
2023-09-04T12:14:52.373Z,99547.91
2023-09-04T12:16:05.383Z,99552.66
2023-09-04T12:17:11.684Z,99545.06
2023-09-04T12:18:13.802Z,99548.50
2023-09-04T12:19:18.017Z,99554.28
2023-09-04T12:20:19.943Z,99546.81
2023-09-04T12:21:26.184Z,99548.25
2023-09-04T12:22:28.105Z,99557.63
2023-09-04T12:23:46.406Z,99546.63
2023-09-04T12:25:02.202Z,99551.28
2023-09-04T12:26:05.206Z,99551.31
2023-09-04T12:27:07.588Z,99556.06
2023-09-04T12:28:11.800Z,99549.53
2023-09-04T12:29:13.754Z,99549.19